createdAt,value
2023-01-18T00:00:48.005Z,6.22
2023-01-18T00:03:14.928Z,5.53
2023-01-18T00:05:42.485Z,11.55
2023-01-18T00:08:14.432Z,17.70
2023-01-18T00:10:41.596Z,11.15
2023-01-18T00:13:08.753Z,15.30
2023-01-18T00:15:36.307Z,7.65
2023-01-18T00:18:03.507Z,11.32
2023-01-18T00:20:31.535Z,9.85
2023-01-18T00:23:01.945Z,10.10
2023-01-18T00:25:30.286Z,12.48
2023-01-18T00:27:57.359Z,6.38
2023-01-18T00:30:27.661Z,8.80
2023-01-18T00:32:58.634Z,9.98
2023-01-18T00:35:26.282Z,22.10
2023-01-18T00:37:54.145Z,16.35
2023-01-18T00:40:22.530Z,12.68
2023-01-18T00:43:07.945Z,13.45
2023-01-18T00:45:35.021Z,18.83
2023-01-18T00:48:02.843Z,22.55
2023-01-18T00:50:30.462Z,19.58
2023-01-18T00:52:59.065Z,15.15
2023-01-18T00:55:26.804Z,18.13
2023-01-18T00:57:53.970Z,12.75
2023-01-18T01:00:27.013Z,10.98
2023-01-18T01:02:54.537Z,15.48
2023-01-18T01:05:42.266Z,15.93
2023-01-18T01:08:17.066Z,9.38
2023-01-18T01:10:49.213Z,11.98
2023-01-18T01:13:40.568Z,14.15
2023-01-18T01:16:30.400Z,10.43
2023-01-18T01:19:15.685Z,20.02
2023-01-18T01:22:01.170Z,13.73
2023-01-18T01:24:46.666Z,6.20
2023-01-18T01:27:17.556Z,11.95
2023-01-18T01:29:44.568Z,17.73
2023-01-18T01:32:11.596Z,6.97
2023-01-18T01:34:38.441Z,9.52
2023-01-18T01:37:05.660Z,12.40
2023-01-18T01:39:32.531Z,14.60
2023-01-18T01:41:59.501Z,9.52
2023-01-18T01:44:29.919Z,9.32
2023-01-18T01:47:14.730Z,12.65
2023-01-18T01:49:55.045Z,13.45
2023-01-18T01:52:35.914Z,13.25
2023-01-18T01:55:13.507Z,14.68
2023-01-18T01:57:51.111Z,9.88
2023-01-18T02:00:20.446Z,14.50
2023-01-18T02:02:53.647Z,9.50
2023-01-18T02:05:20.994Z,9.48
2023-01-18T02:07:48.880Z,12.77
2023-01-18T02:10:16.338Z,15.57
2023-01-18T02:12:47.099Z,11.70
2023-01-18T02:15:15.005Z,15.50
2023-01-18T02:18:29.979Z,16.25
2023-01-18T02:21:06.098Z,13.18
2023-01-18T02:24:21.572Z,18.55
2023-01-18T02:26:59.552Z,10.43
2023-01-18T02:29:32.498Z,13.45
2023-01-18T02:32:05.336Z,15.57
2023-01-18T02:34:47.536Z,12.02
2023-01-18T02:37:39.969Z,16.35
2023-01-18T02:40:26.136Z,11.32
2023-01-18T02:43:12.058Z,20.25
2023-01-18T02:46:01.789Z,16.48
2023-01-18T02:48:41.930Z,10.70
2023-01-18T02:51:09.876Z,9.23
2023-01-18T02:53:45.254Z,15.25
2023-01-18T02:56:33.931Z,14.73
2023-01-18T02:59:05.197Z,12.02
2023-01-18T03:01:41.546Z,21.98
2023-01-18T03:04:22.656Z,8.65
2023-01-18T03:06:59.149Z,20.10
2023-01-18T03:09:27.512Z,8.38
2023-01-18T03:12:16.114Z,14.57
2023-01-18T03:15:10.117Z,24.33
2023-01-18T03:17:51.490Z,13.48
2023-01-18T03:20:25.907Z,10.15
2023-01-18T03:23:21.827Z,11.23
2023-01-18T03:25:51.113Z,13.48
2023-01-18T03:28:52.758Z,15.88
2023-01-18T03:32:20.111Z,15.40
2023-01-18T03:34:59.188Z,13.32
2023-01-18T03:37:38.875Z,12.05
2023-01-18T03:40:23.796Z,16.25
2023-01-18T03:43:03.747Z,7.85
2023-01-18T03:45:37.543Z,21.63
2023-01-18T03:48:07.262Z,18.73
2023-01-18T03:50:49.698Z,28.58
2023-01-18T03:53:33.747Z,16.88
2023-01-18T03:56:18.417Z,15.60
2023-01-18T03:58:47.566Z,12.60
2023-01-18T04:01:14.778Z,16.55
2023-01-18T04:03:41.704Z,10.77
2023-01-18T04:06:08.964Z,15.50
2023-01-18T04:08:35.823Z,12.50
2023-01-18T04:11:02.790Z,13.23
2023-01-18T04:13:29.760Z,14.70
2023-01-18T04:15:56.721Z,10.50
2023-01-18T04:18:23.602Z,17.92
2023-01-18T04:20:50.507Z,20.58
2023-01-18T04:23:17.607Z,17.00
2023-01-18T04:25:50.051Z,12.55
2023-01-18T04:28:25.359Z,18.60
2023-01-18T04:30:54.476Z,10.80
2023-01-18T04:33:23.401Z,14.65
2023-01-18T04:35:51.855Z,19.58
2023-01-18T04:38:20.406Z,20.00
2023-01-18T04:40:47.426Z,15.90
2023-01-18T04:43:14.312Z,30.38
2023-01-18T04:45:41.214Z,18.25
2023-01-18T04:48:08.159Z,12.57
2023-01-18T04:50:35.118Z,13.00
2023-01-18T04:53:02.570Z,19.80
2023-01-18T04:55:29.500Z,21.70
2023-01-18T04:57:57.564Z,11.50
2023-01-18T05:00:24.745Z,17.30
2023-01-18T05:02:51.709Z,11.73
2023-01-18T05:05:18.692Z,13.90
2023-01-18T05:07:45.730Z,20.70
2023-01-18T05:10:13.185Z,16.25
2023-01-18T05:12:41.500Z,19.42
2023-01-18T05:15:08.980Z,7.90
2023-01-18T05:17:35.964Z,13.18
2023-01-18T05:20:06.436Z,20.83
2023-01-18T05:22:34.068Z,13.95
2023-01-18T05:25:01.371Z,20.83
2023-01-18T05:30:14.398Z,14.25
2023-01-18T05:32:43.708Z,23.52
2023-01-18T05:35:12.439Z,22.15
2023-01-18T05:37:40.252Z,16.80
2023-01-18T05:40:12.403Z,13.40
2023-01-18T05:42:40.804Z,30.42
2023-01-18T05:45:08.195Z,23.05
2023-01-18T05:47:35.212Z,22.13
2023-01-18T05:50:02.464Z,12.00
2023-01-18T05:52:29.819Z,13.95
2023-01-18T05:54:56.797Z,20.25
2023-01-18T05:57:24.013Z,25.40
2023-01-18T05:59:50.847Z,17.58
2023-01-18T06:02:18.776Z,32.58
2023-01-18T06:04:45.710Z,16.70
2023-01-18T06:07:13.017Z,22.67
2023-01-18T06:09:42.666Z,17.40
2023-01-18T06:12:10.448Z,26.80
2023-01-18T06:14:37.415Z,25.20
2023-01-18T06:17:04.725Z,27.67
2023-01-18T06:19:31.522Z,28.08
2023-01-18T06:21:58.480Z,16.58
2023-01-18T06:24:25.560Z,19.98
2023-01-18T06:26:52.420Z,17.58
2023-01-18T06:29:19.317Z,21.52
2023-01-18T06:31:46.369Z,21.35
2023-01-18T06:34:13.402Z,36.50
2023-01-18T06:36:40.566Z,119.38
2023-01-18T06:39:07.678Z,67.32
2023-01-18T06:41:34.767Z,50.75
2023-01-18T06:44:01.859Z,24.33
2023-01-18T06:46:29.319Z,48.92
2023-01-18T06:48:56.268Z,33.80
2023-01-18T06:51:24.281Z,32.63
2023-01-18T06:53:51.356Z,28.08
2023-01-18T06:56:18.390Z,32.90
2023-01-18T06:58:45.406Z,31.48
2023-01-18T07:01:12.672Z,31.52
2023-01-18T07:03:39.686Z,44.28
2023-01-18T07:06:07.597Z,28.17
2023-01-18T07:08:35.672Z,38.17
2023-01-18T07:11:08.600Z,45.10
2023-01-18T07:13:35.886Z,19.52
2023-01-18T07:16:02.920Z,14.32
2023-01-18T07:18:30.689Z,19.83
2023-01-18T07:21:07.370Z,23.13
2023-01-18T07:23:36.580Z,27.65
2023-01-18T07:26:12.717Z,13.27
2023-01-18T07:28:39.907Z,17.60
2023-01-18T07:31:08.132Z,14.98
2023-01-18T07:33:36.178Z,17.40
2023-01-18T07:36:06.392Z,17.02
2023-01-18T07:38:34.137Z,18.23
2023-01-18T07:41:08.369Z,13.50
2023-01-18T07:43:39.907Z,18.60
2023-01-18T07:46:09.570Z,17.70
2023-01-18T07:48:38.871Z,16.60
2023-01-18T07:51:08.664Z,34.53
2023-01-18T07:53:37.207Z,19.25
2023-01-18T07:56:07.611Z,17.75
2023-01-18T07:58:37.945Z,16.50
2023-01-18T08:01:14.083Z,15.95
2023-01-18T08:03:43.715Z,18.75
2023-01-18T08:06:13.696Z,20.00
2023-01-18T08:08:40.909Z,12.07
2023-01-18T08:11:08.231Z,11.82
2023-01-18T08:13:35.573Z,15.38
2023-01-18T08:16:05.665Z,23.95
2023-01-18T08:18:32.912Z,15.93
2023-01-18T08:21:00.028Z,21.45
2023-01-18T08:23:27.061Z,16.92
2023-01-18T08:25:55.534Z,11.95
2023-01-18T08:28:22.651Z,23.38
2023-01-18T08:30:49.960Z,21.27
2023-01-18T08:33:16.951Z,15.25
2023-01-18T08:35:48.268Z,16.13
2023-01-18T08:38:16.822Z,21.50
2023-01-18T08:40:43.925Z,11.95
2023-01-18T08:43:11.911Z,20.98
2023-01-18T08:45:39.205Z,25.38
2023-01-18T08:48:09.709Z,18.13
2023-01-18T08:50:39.280Z,12.97
2023-01-18T08:53:06.836Z,19.10
2023-01-18T08:55:36.701Z,15.52
2023-01-18T08:58:04.098Z,20.23
2023-01-18T09:00:31.221Z,19.27
2023-01-18T09:02:59.992Z,14.48
2023-01-18T09:05:27.197Z,17.98
2023-01-18T09:07:55.459Z,12.18
2023-01-18T09:10:23.082Z,23.25
2023-01-18T09:12:52.751Z,13.75
2023-01-18T09:15:20.756Z,14.23
2023-01-18T09:17:47.590Z,12.48
2023-01-18T09:20:16.535Z,13.73
2023-01-18T09:22:47.769Z,16.10
2023-01-18T09:25:15.680Z,15.30
2023-01-18T09:27:42.742Z,18.75
2023-01-18T09:30:10.290Z,12.98
2023-01-18T09:32:37.298Z,14.82
2023-01-18T09:35:06.228Z,17.65
2023-01-18T09:37:33.339Z,13.85
2023-01-18T09:40:00.516Z,12.93
2023-01-18T09:42:36.769Z,12.43
2023-01-18T09:45:04.608Z,13.15
2023-01-18T09:47:43.204Z,10.95
2023-01-18T09:50:13.744Z,22.63
2023-01-18T09:52:53.931Z,16.03
2023-01-18T09:55:28.766Z,22.23
2023-01-18T09:58:20.647Z,15.73
2023-01-18T10:00:49.558Z,19.17
2023-01-18T10:03:28.510Z,14.20
2023-01-18T10:06:11.399Z,23.80
2023-01-18T10:09:04.979Z,17.48
2023-01-18T10:11:55.082Z,17.20
2023-01-18T10:14:45.339Z,10.02
2023-01-18T10:17:17.921Z,15.15
2023-01-18T10:19:44.924Z,21.45
2023-01-18T10:22:29.478Z,19.20
2023-01-18T10:25:18.900Z,13.48
2023-01-18T10:27:55.354Z,12.70
2023-01-18T10:30:45.165Z,30.45
2023-01-18T10:33:28.042Z,23.13
2023-01-18T10:36:00.928Z,10.57
2023-01-18T10:38:30.418Z,14.95
2023-01-18T10:41:03.492Z,14.88
2023-01-18T10:43:31.977Z,16.08
2023-01-18T10:45:59.311Z,13.38
2023-01-18T10:48:28.256Z,17.83
2023-01-18T10:51:04.007Z,11.38
2023-01-18T10:53:34.167Z,10.45
2023-01-18T10:56:08.135Z,12.73
2023-01-18T10:58:47.006Z,13.30
2023-01-18T11:01:36.497Z,16.35
2023-01-18T11:04:30.001Z,28.38
2023-01-18T11:07:00.724Z,13.65
2023-01-18T11:09:39.474Z,18.90
2023-01-18T11:12:55.009Z,12.60
2023-01-18T11:15:26.186Z,17.35
2023-01-18T11:18:00.415Z,18.00
2023-01-18T11:20:39.604Z,11.20
2023-01-18T11:23:09.498Z,20.55
2023-01-18T11:25:42.805Z,15.63
2023-01-18T11:28:35.241Z,14.15
2023-01-18T11:31:18.684Z,12.13
2023-01-18T11:33:57.489Z,10.57
2023-01-18T11:36:45.345Z,12.30
2023-01-18T11:39:29.500Z,13.05
2023-01-18T11:42:11.697Z,11.60
2023-01-18T11:45:27.523Z,9.10
2023-01-18T11:48:11.641Z,5.38
2023-01-18T11:50:49.421Z,16.23
2023-01-18T11:53:34.885Z,10.18
2023-01-18T11:56:07.933Z,9.13
2023-01-18T11:58:36.415Z,8.70
2023-01-18T12:01:34.108Z,7.80
2023-01-18T12:04:14.234Z,17.55
2023-01-18T12:07:18.270Z,12.63
2023-01-18T12:09:55.487Z,9.23
2023-01-18T12:13:00.571Z,8.50
2023-01-18T12:16:08.244Z,11.75
2023-01-18T12:18:50.751Z,13.10
2023-01-18T12:21:32.133Z,9.48
2023-01-18T12:26:50.062Z,8.88
2023-01-18T12:29:55.540Z,13.40
2023-01-18T12:32:22.815Z,11.88
2023-01-18T12:35:24.012Z,10.57
2023-01-18T12:37:51.810Z,7.28
2023-01-18T12:40:37.077Z,15.25
2023-01-18T12:43:10.084Z,8.30
2023-01-18T12:45:40.479Z,8.35
2023-01-18T12:48:26.101Z,10.57
2023-01-18T12:50:55.133Z,16.27
2023-01-18T12:53:31.968Z,10.93
2023-01-18T12:56:04.236Z,15.00
2023-01-18T12:58:31.758Z,15.95
2023-01-18T13:01:04.419Z,8.88
2023-01-18T13:03:53.621Z,12.02
2023-01-18T13:06:21.394Z,7.47
2023-01-18T13:09:15.764Z,10.57
2023-01-18T13:11:44.448Z,17.63
2023-01-18T13:14:33.691Z,12.77
2023-01-18T13:17:14.349Z,15.25
2023-01-18T13:19:58.768Z,8.63
2023-01-18T13:22:45.140Z,15.07
2023-01-18T13:25:33.020Z,14.40
2023-01-18T13:28:14.056Z,9.70
2023-01-18T13:31:03.399Z,10.00
2023-01-18T13:33:40.712Z,9.68
2023-01-18T13:36:12.445Z,17.02
2023-01-18T13:38:52.508Z,25.90
2023-01-18T13:41:25.011Z,14.30
2023-01-18T13:43:51.945Z,19.92
2023-01-18T13:46:25.357Z,16.98
2023-01-18T13:48:57.671Z,18.00
2023-01-18T13:51:33.460Z,14.73
2023-01-18T13:54:00.539Z,19.45
2023-01-18T13:56:29.524Z,19.52
2023-01-18T13:59:21.256Z,18.55
2023-01-18T14:04:21.105Z,22.33
2023-01-18T14:06:49.737Z,56.88
2023-01-18T14:09:19.850Z,22.05
2023-01-18T14:11:54.374Z,20.30
2023-01-18T14:14:21.222Z,19.08
2023-01-18T14:16:56.343Z,39.35
2023-01-18T14:19:24.429Z,28.10
2023-01-18T14:22:29.656Z,49.08
2023-01-18T14:25:32.896Z,20.73
2023-01-18T14:28:07.738Z,25.35
2023-01-18T14:30:37.200Z,21.85
2023-01-18T14:33:33.890Z,29.05
2023-01-18T14:36:02.057Z,31.65
2023-01-18T14:38:30.711Z,29.17
2023-01-18T14:41:06.021Z,23.98
2023-01-18T14:43:36.865Z,33.13
2023-01-18T14:46:03.792Z,28.60
2023-01-18T14:48:34.791Z,27.02
2023-01-18T14:51:05.119Z,34.42
2023-01-18T14:53:36.966Z,28.27
2023-01-18T14:56:25.962Z,33.75
2023-01-18T14:58:57.357Z,32.53
2023-01-18T15:01:26.761Z,11.32
2023-01-18T15:03:56.196Z,26.17
2023-01-18T15:07:03.995Z,40.63
2023-01-18T15:09:33.706Z,31.38
2023-01-18T15:12:04.662Z,28.98
2023-01-18T15:14:38.471Z,33.22
2023-01-18T15:17:11.696Z,27.92
2023-01-18T15:19:44.201Z,34.65
2023-01-18T15:22:17.006Z,23.38
2023-01-18T15:24:46.453Z,32.90
2023-01-18T15:27:18.885Z,40.35
2023-01-18T15:29:53.638Z,31.30
2023-01-18T15:32:33.295Z,29.10
2023-01-18T15:35:01.648Z,22.95
2023-01-18T15:37:34.766Z,40.13
2023-01-18T15:40:03.298Z,34.97
2023-01-18T15:42:46.807Z,35.33
2023-01-18T15:45:17.741Z,34.38
2023-01-18T15:47:50.700Z,26.35
2023-01-18T15:50:23.660Z,41.60
2023-01-18T15:53:02.198Z,28.25
2023-01-18T15:55:41.399Z,31.10
2023-01-18T15:58:18.211Z,38.50
2023-01-18T16:00:54.093Z,33.60
2023-01-18T16:03:26.373Z,33.80
2023-01-18T16:06:15.255Z,31.27
2023-01-18T16:09:12.731Z,68.32
2023-01-18T16:11:57.724Z,38.47
2023-01-18T16:14:27.944Z,43.47
2023-01-18T16:16:57.167Z,29.08
2023-01-18T16:19:42.282Z,34.75
2023-01-18T16:22:29.840Z,30.67
2023-01-18T16:25:01.529Z,39.13
2023-01-18T16:27:31.628Z,41.65
2023-01-18T16:30:18.146Z,36.88
2023-01-18T16:32:45.281Z,41.58
2023-01-18T16:35:14.312Z,39.75
2023-01-18T16:37:44.494Z,42.15
2023-01-18T16:40:23.188Z,37.75
2023-01-18T16:43:05.511Z,36.78
2023-01-18T16:45:37.960Z,47.92
2023-01-18T16:48:05.684Z,45.38
2023-01-18T16:50:33.083Z,49.38
2023-01-18T16:53:00.049Z,119.55
2023-01-18T16:55:27.214Z,82.63
2023-01-18T16:57:54.305Z,60.45
2023-01-18T17:00:28.345Z,63.83
2023-01-18T17:02:55.706Z,59.13
2023-01-18T17:05:22.880Z,52.20
2023-01-18T17:07:52.285Z,60.63
2023-01-18T17:10:31.415Z,52.80
2023-01-18T17:13:00.214Z,47.03
2023-01-18T17:15:30.005Z,62.00
2023-01-18T17:17:57.145Z,63.17
2023-01-18T17:20:26.345Z,42.08
2023-01-18T17:22:54.371Z,40.38
2023-01-18T17:25:22.705Z,66.90
2023-01-18T17:27:50.277Z,49.58
2023-01-18T17:30:21.549Z,61.30
2023-01-18T17:32:49.127Z,56.95
2023-01-18T17:35:22.991Z,65.18
2023-01-18T17:37:57.387Z,55.88
2023-01-18T17:40:39.589Z,41.63
2023-01-18T17:43:32.081Z,55.97
2023-01-18T17:46:03.393Z,60.92
2023-01-18T17:48:30.555Z,51.20
2023-01-18T17:50:57.476Z,38.22
2023-01-18T17:53:24.487Z,45.80
2023-01-18T17:55:51.443Z,47.25
2023-01-18T17:58:18.381Z,60.08
2023-01-18T18:00:45.428Z,55.28
2023-01-18T18:03:13.540Z,43.55
2023-01-18T18:05:40.500Z,62.17
2023-01-18T18:08:08.307Z,57.88
2023-01-18T18:10:35.244Z,55.35
2023-01-18T18:13:02.539Z,53.47
2023-01-18T18:15:30.517Z,56.90
2023-01-18T18:17:57.524Z,65.30
2023-01-18T18:20:24.882Z,45.60
2023-01-18T18:22:51.845Z,57.40
2023-01-18T18:25:18.905Z,60.90
2023-01-18T18:27:47.190Z,49.88
2023-01-18T18:30:15.612Z,58.15
2023-01-18T18:32:42.698Z,49.55
2023-01-18T18:35:23.538Z,46.15
2023-01-18T18:37:52.300Z,78.53
2023-01-18T18:40:19.372Z,57.05
2023-01-18T18:42:56.388Z,64.65
2023-01-18T18:45:30.104Z,68.38
2023-01-18T18:47:57.056Z,69.57
2023-01-18T18:50:24.049Z,76.13
2023-01-18T18:52:51.143Z,52.83
2023-01-18T18:55:18.544Z,48.80
2023-01-18T18:57:45.648Z,68.20
2023-01-18T19:00:13.712Z,62.35
2023-01-18T19:02:40.880Z,59.97
2023-01-18T19:05:10.692Z,55.35
2023-01-18T19:07:38.247Z,51.08
2023-01-18T19:10:06.824Z,54.90
2023-01-18T19:12:33.930Z,69.00
2023-01-18T19:15:01.000Z,53.55
2023-01-18T19:17:31.057Z,53.80
2023-01-18T19:19:59.416Z,46.83
2023-01-18T19:22:26.678Z,57.60
2023-01-18T19:24:53.681Z,51.75
2023-01-18T19:27:21.904Z,59.72
2023-01-18T19:29:48.787Z,57.40
2023-01-18T19:32:16.144Z,52.60
2023-01-18T19:34:43.242Z,58.33
2023-01-18T19:37:10.190Z,68.53
2023-01-18T19:39:37.107Z,55.28
2023-01-18T19:42:04.543Z,64.28
2023-01-18T19:44:31.685Z,58.80
2023-01-18T19:46:58.771Z,52.05
2023-01-18T19:49:26.128Z,57.85
2023-01-18T19:51:54.756Z,49.13
2023-01-18T19:54:22.327Z,44.35
2023-01-18T19:56:49.676Z,45.67
2023-01-18T19:59:16.756Z,43.03
2023-01-18T20:01:44.704Z,49.65
2023-01-18T20:04:13.586Z,45.90
2023-01-18T20:06:43.484Z,42.92
2023-01-18T20:09:19.565Z,52.08
2023-01-18T20:11:48.174Z,59.67
2023-01-18T20:14:18.704Z,41.90
2023-01-18T20:16:48.819Z,51.67
2023-01-18T20:19:17.588Z,47.92
2023-01-18T20:21:44.762Z,45.55
2023-01-18T20:24:11.822Z,56.45
2023-01-18T20:26:42.675Z,50.50
2023-01-18T20:29:10.401Z,51.13
2023-01-18T20:31:38.550Z,57.95
2023-01-18T20:34:06.908Z,52.17
2023-01-18T20:36:37.684Z,39.63
2023-01-18T20:39:05.889Z,49.35
2023-01-18T20:41:32.950Z,48.65
2023-01-18T20:43:59.944Z,45.35
2023-01-18T20:46:27.225Z,45.22
2023-01-18T20:48:54.052Z,40.85
2023-01-18T20:51:24.376Z,49.20
2023-01-18T20:54:25.877Z,34.10
2023-01-18T20:57:02.284Z,41.88
2023-01-18T20:59:31.116Z,45.90
2023-01-18T21:01:58.298Z,43.85
2023-01-18T21:04:33.422Z,47.80
2023-01-18T21:07:00.278Z,45.22
2023-01-18T21:09:27.542Z,43.95
2023-01-18T21:11:54.495Z,43.65
2023-01-18T21:14:21.376Z,57.55
2023-01-18T21:16:48.364Z,51.00
2023-01-18T21:19:15.264Z,56.90
2023-01-18T21:21:42.378Z,50.45
2023-01-18T21:24:09.250Z,44.70
2023-01-18T21:26:37.977Z,39.55
2023-01-18T21:29:05.846Z,34.47
2023-01-18T21:31:32.889Z,41.00
2023-01-18T21:33:59.760Z,49.97
2023-01-18T21:36:26.672Z,50.10
2023-01-18T21:38:53.740Z,35.90
2023-01-18T21:41:39.651Z,27.20
2023-01-18T21:44:25.135Z,34.47
2023-01-18T21:46:52.805Z,42.10
2023-01-18T21:52:58.479Z,35.47
2023-01-18T21:55:25.333Z,36.00
2023-01-18T21:58:10.926Z,31.00
2023-01-18T22:00:39.572Z,24.33
2023-01-18T22:03:06.819Z,34.42
2023-01-18T22:05:34.491Z,34.10
2023-01-18T22:08:03.720Z,26.27
2023-01-18T22:10:30.620Z,37.95
2023-01-18T22:12:58.040Z,24.60
2023-01-18T22:15:24.975Z,31.25
2023-01-18T22:17:51.853Z,63.95
2023-01-18T22:20:18.817Z,45.33
2023-01-18T22:22:46.603Z,36.35
2023-01-18T22:25:13.859Z,34.50
2023-01-18T22:27:40.684Z,38.08
2023-01-18T22:30:08.769Z,35.55
2023-01-18T22:32:35.621Z,35.83
2023-01-18T22:35:02.531Z,36.55
2023-01-18T22:37:29.750Z,24.30
2023-01-18T22:39:57.511Z,34.97
2023-01-18T22:42:25.672Z,30.92
2023-01-18T22:44:52.622Z,30.88
2023-01-18T22:47:19.544Z,36.90
2023-01-18T22:49:46.440Z,31.48
2023-01-18T22:52:13.464Z,33.83
2023-01-18T22:54:40.344Z,21.27
2023-01-18T22:57:07.220Z,35.72
2023-01-18T22:59:33.993Z,35.60
2023-01-18T23:02:00.907Z,30.63
2023-01-18T23:04:29.502Z,26.92
2023-01-18T23:07:00.928Z,39.60
2023-01-18T23:11:55.061Z,29.17
2023-01-18T23:14:40.471Z,26.73
2023-01-18T23:17:27.796Z,28.23
2023-01-18T23:19:55.150Z,31.20
2023-01-18T23:22:22.078Z,31.90
2023-01-18T23:24:49.740Z,41.08
2023-01-18T23:27:16.796Z,36.03
2023-01-18T23:29:43.832Z,34.30
2023-01-18T23:32:10.773Z,36.47
2023-01-18T23:34:37.644Z,33.10
2023-01-18T23:37:04.483Z,31.20
2023-01-18T23:39:49.858Z,38.20
2023-01-18T23:42:35.685Z,34.25
2023-01-18T23:45:21.089Z,35.50
2023-01-18T23:48:06.323Z,37.55
2023-01-18T23:50:51.925Z,39.05
2023-01-18T23:53:37.168Z,29.00
2023-01-18T23:56:04.050Z,35.05
2023-01-18T23:58:30.957Z,29.73
